createdAt,value
2019-02-02T00:00:42.371Z,48.70
2019-02-02T00:03:12.062Z,45.35
2019-02-02T00:05:40.790Z,42.13
2019-02-02T00:08:09.663Z,44.80
2019-02-02T00:10:38.083Z,37.17
2019-02-02T00:13:06.754Z,41.90
2019-02-02T00:15:35.384Z,49.38
2019-02-02T00:18:04.265Z,45.15
2019-02-02T00:20:32.708Z,42.53
2019-02-02T00:23:01.203Z,49.45
2019-02-02T00:25:29.703Z,36.85
2019-02-02T00:27:58.194Z,38.98
2019-02-02T00:30:26.635Z,38.53
2019-02-02T00:32:55.055Z,42.13
2019-02-02T00:35:23.482Z,47.85
2019-02-02T00:37:51.930Z,42.15
2019-02-02T00:40:21.093Z,40.50
2019-02-02T00:42:49.599Z,45.00
2019-02-02T00:45:22.780Z,47.13
2019-02-02T00:47:55.539Z,39.00
2019-02-02T00:50:23.975Z,41.05
2019-02-02T00:52:52.389Z,41.73
2019-02-02T00:55:21.362Z,49.18
2019-02-02T00:57:53.923Z,41.02
2019-02-02T01:00:24.672Z,44.70
2019-02-02T01:02:53.106Z,50.70
2019-02-02T01:05:24.730Z,40.88
2019-02-02T01:07:54.288Z,43.50
2019-02-02T01:10:28.719Z,48.28
2019-02-02T01:12:57.450Z,46.28
2019-02-02T01:15:26.145Z,44.80
2019-02-02T01:17:54.944Z,43.75
2019-02-02T01:20:24.022Z,49.40
2019-02-02T01:22:52.907Z,41.33
2019-02-02T01:25:21.385Z,44.30
2019-02-02T01:27:49.824Z,37.10
2019-02-02T01:30:23.715Z,38.63
2019-02-02T01:32:52.442Z,42.15
2019-02-02T01:35:21.361Z,42.20
2019-02-02T01:37:49.847Z,42.30
2019-02-02T01:40:21.424Z,39.23
2019-02-02T01:42:49.831Z,49.35
2019-02-02T01:45:23.676Z,43.83
2019-02-02T01:47:53.223Z,47.60
2019-02-02T01:50:24.041Z,43.10
2019-02-02T01:52:52.625Z,40.83
2019-02-02T01:55:22.019Z,45.25
2019-02-02T01:57:50.448Z,46.37
2019-02-02T02:00:27.770Z,56.35
2019-02-02T02:02:59.274Z,45.10
2019-02-02T02:05:27.747Z,40.92
2019-02-02T02:07:56.170Z,45.05
2019-02-02T02:10:24.618Z,43.87
2019-02-02T02:12:53.125Z,52.35
2019-02-02T02:15:22.075Z,42.55
2019-02-02T02:17:50.886Z,40.73
2019-02-02T02:20:23.936Z,45.80
2019-02-02T02:22:51.385Z,44.83
2019-02-02T02:25:20.963Z,42.10
2019-02-02T02:27:50.226Z,43.28
2019-02-02T02:30:20.985Z,45.67
2019-02-02T02:32:50.105Z,51.98
2019-02-02T02:35:18.611Z,48.60
2019-02-02T02:37:47.431Z,43.70
2019-02-02T02:40:18.390Z,47.08
2019-02-02T02:42:46.884Z,43.52
2019-02-02T02:45:15.843Z,41.50
2019-02-02T02:47:44.346Z,43.73
2019-02-02T02:50:18.051Z,41.70
2019-02-02T02:52:46.554Z,38.05
2019-02-02T02:55:16.809Z,41.02
2019-02-02T02:57:45.494Z,51.85
2019-02-02T03:00:17.247Z,48.98
2019-02-02T03:02:45.661Z,40.43
2019-02-02T03:05:15.456Z,36.75
2019-02-02T03:07:44.215Z,46.92
2019-02-02T03:10:15.677Z,51.98
2019-02-02T03:12:44.105Z,46.35
2019-02-02T03:15:14.994Z,38.95
2019-02-02T03:17:43.758Z,44.83
2019-02-02T03:20:14.619Z,50.05
2019-02-02T03:22:43.435Z,56.45
2019-02-02T03:25:14.876Z,56.73
2019-02-02T03:27:43.330Z,47.35
2019-02-02T03:30:14.656Z,45.43
2019-02-02T03:32:43.257Z,49.90
2019-02-02T03:35:14.025Z,43.78
2019-02-02T03:37:42.722Z,44.45
2019-02-02T03:40:14.082Z,41.13
2019-02-02T03:42:42.622Z,47.25
2019-02-02T03:45:13.998Z,42.58
2019-02-02T03:47:42.409Z,47.70
2019-02-02T03:50:16.751Z,45.75
2019-02-02T03:52:45.209Z,37.67
2019-02-02T03:55:16.953Z,49.53
2019-02-02T03:57:45.766Z,40.52
2019-02-02T04:00:17.172Z,45.90
2019-02-02T04:02:46.446Z,51.63
2019-02-02T04:05:23.667Z,47.65
2019-02-02T04:07:52.312Z,43.30
2019-02-02T04:10:20.984Z,39.63
2019-02-02T04:12:49.435Z,43.30
2019-02-02T04:15:18.752Z,51.92
2019-02-02T04:17:47.526Z,47.38
2019-02-02T04:20:21.160Z,42.95
2019-02-02T04:22:49.972Z,45.25
2019-02-02T04:25:19.528Z,40.20
2019-02-02T04:27:47.945Z,43.78
2019-02-02T04:30:18.821Z,39.53
2019-02-02T04:32:47.306Z,36.68
2019-02-02T04:35:15.751Z,42.67
2019-02-02T04:37:44.183Z,39.42
2019-02-02T04:40:14.844Z,37.13
2019-02-02T04:42:43.598Z,37.38
2019-02-02T04:45:14.850Z,38.95
2019-02-02T04:47:43.563Z,43.48
2019-02-02T04:50:17.453Z,45.12
2019-02-02T04:52:50.252Z,38.23
2019-02-02T04:55:20.146Z,41.00
2019-02-02T04:57:48.928Z,41.13
2019-02-02T05:00:20.261Z,39.98
2019-02-02T05:02:48.684Z,41.23
2019-02-02T05:05:18.351Z,39.67
2019-02-02T05:07:51.231Z,44.70
2019-02-02T05:10:24.062Z,39.88
2019-02-02T05:12:53.055Z,42.98
2019-02-02T05:15:21.763Z,38.40
2019-02-02T05:17:50.348Z,40.63
2019-02-02T05:20:20.312Z,41.20
2019-02-02T05:22:52.634Z,41.02
2019-02-02T05:25:21.350Z,34.50
2019-02-02T05:27:49.766Z,54.60
2019-02-02T05:30:23.463Z,36.90
2019-02-02T05:32:51.914Z,39.05
2019-02-02T05:35:20.399Z,40.23
2019-02-02T05:37:52.203Z,41.10
2019-02-02T05:40:21.649Z,38.92
2019-02-02T05:42:50.728Z,39.67
2019-02-02T05:45:21.585Z,43.92
2019-02-02T05:47:50.196Z,42.43
2019-02-02T05:50:20.972Z,35.58
2019-02-02T05:52:53.223Z,40.98
2019-02-02T05:55:23.096Z,35.23
2019-02-02T05:57:51.906Z,41.02
2019-02-02T06:00:30.099Z,39.23
2019-02-02T06:02:58.712Z,40.45
2019-02-02T06:05:27.147Z,41.98
2019-02-02T06:07:55.567Z,46.30
2019-02-02T06:10:24.014Z,43.90
2019-02-02T06:12:52.436Z,45.03
2019-02-02T06:15:20.850Z,45.20
2019-02-02T06:17:49.279Z,46.60
2019-02-02T06:20:18.189Z,46.02
2019-02-02T06:22:53.827Z,45.15
2019-02-02T06:25:22.285Z,37.08
2019-02-02T06:27:50.762Z,44.45
2019-02-02T06:30:21.714Z,35.28
2019-02-02T06:32:50.128Z,49.08
2019-02-02T06:35:19.393Z,44.93
2019-02-02T06:37:52.086Z,43.25
2019-02-02T06:40:20.500Z,39.80
2019-02-02T06:42:48.915Z,40.08
2019-02-02T06:45:32.331Z,38.45
2019-02-02T06:48:00.950Z,40.30
2019-02-02T06:50:29.375Z,43.05
2019-02-02T06:52:58.532Z,45.88
2019-02-02T06:55:26.991Z,41.60
2019-02-02T06:57:55.420Z,42.93
2019-02-02T07:00:27.167Z,37.63
2019-02-02T07:02:55.659Z,38.00
2019-02-02T07:05:24.468Z,37.25
2019-02-02T07:07:52.913Z,41.58
2019-02-02T07:10:24.555Z,44.70
2019-02-02T07:12:52.967Z,44.10
2019-02-02T07:15:24.387Z,43.50
2019-02-02T07:17:52.837Z,45.80
2019-02-02T07:20:21.524Z,48.75
2019-02-02T07:22:50.330Z,41.40
2019-02-02T07:25:18.746Z,43.55
2019-02-02T07:27:47.199Z,41.53
2019-02-02T07:30:28.862Z,45.50
2019-02-02T07:32:51.943Z,45.60
2019-02-02T07:35:21.132Z,41.30
2019-02-02T07:37:49.579Z,43.65
2019-02-02T07:40:19.558Z,44.03
2019-02-02T07:42:47.974Z,43.42
2019-02-02T07:45:21.953Z,41.42
2019-02-02T07:47:50.396Z,41.92
2019-02-02T07:50:19.211Z,41.68
2019-02-02T07:52:47.636Z,46.28
2019-02-02T07:55:20.778Z,43.30
2019-02-02T07:57:49.200Z,39.58
2019-02-02T08:00:26.467Z,47.95
2019-02-02T08:02:55.154Z,39.85
2019-02-02T08:05:23.831Z,43.40
2019-02-02T08:07:52.481Z,50.05
2019-02-02T08:10:21.423Z,35.35
2019-02-02T08:12:49.846Z,39.90
2019-02-02T08:15:21.383Z,44.30
2019-02-02T08:17:49.815Z,45.90
2019-02-02T08:20:18.263Z,36.53
2019-02-02T08:22:47.047Z,45.05
2019-02-02T08:25:16.694Z,40.30
2019-02-02T08:27:45.674Z,42.80
2019-02-02T08:30:16.883Z,44.73
2019-02-02T08:32:45.535Z,41.83
2019-02-02T08:35:14.905Z,39.10
2019-02-02T08:37:43.429Z,41.63
2019-02-02T08:40:17.195Z,44.27
2019-02-02T08:42:45.722Z,43.25
2019-02-02T08:45:15.367Z,33.55
2019-02-02T08:47:43.879Z,40.35
2019-02-02T08:50:27.143Z,38.02
2019-02-02T08:52:55.621Z,38.98
2019-02-02T08:55:24.049Z,42.50
2019-02-02T08:57:52.584Z,43.48
2019-02-02T09:00:21.547Z,33.42
2019-02-02T09:02:50.024Z,43.28
2019-02-02T09:05:21.258Z,36.90
2019-02-02T09:07:49.726Z,40.00
2019-02-02T09:10:30.509Z,32.25
2019-02-02T09:12:59.299Z,34.73
2019-02-02T09:15:28.192Z,36.35
2019-02-02T09:17:56.611Z,34.48
2019-02-02T09:20:25.046Z,40.17
2019-02-02T09:23:04.088Z,35.70
2019-02-02T09:25:26.878Z,38.88
2019-02-02T09:27:55.319Z,37.55
2019-02-02T09:30:34.786Z,40.78
2019-02-02T09:33:03.352Z,31.23
2019-02-02T09:35:31.864Z,37.73
2019-02-02T09:38:00.987Z,41.90
2019-02-02T09:40:32.775Z,38.02
2019-02-02T09:43:01.274Z,34.80
2019-02-02T09:45:29.683Z,39.15
2019-02-02T09:47:58.158Z,39.75
2019-02-02T09:50:27.439Z,34.98
2019-02-02T09:52:56.211Z,39.53
2019-02-02T09:55:25.804Z,31.55
2019-02-02T09:57:56.970Z,38.48
2019-02-02T10:00:30.764Z,41.68
2019-02-02T10:02:59.312Z,37.67
2019-02-02T10:05:28.802Z,31.90
2019-02-02T10:07:57.221Z,35.20
2019-02-02T10:10:28.229Z,41.60
2019-02-02T10:12:57.030Z,32.70
2019-02-02T10:15:25.820Z,37.80
2019-02-02T10:17:54.272Z,37.15
2019-02-02T10:20:25.276Z,39.42
2019-02-02T10:22:54.468Z,36.35
2019-02-02T10:25:25.235Z,36.17
2019-02-02T10:28:01.149Z,34.48
2019-02-02T10:30:40.899Z,31.00
2019-02-02T10:33:10.298Z,37.85
2019-02-02T10:35:38.687Z,38.00
2019-02-02T10:38:07.778Z,34.48
2019-02-02T10:40:36.259Z,33.83
2019-02-02T10:43:05.409Z,35.08
2019-02-02T10:45:34.127Z,39.55
2019-02-02T10:48:02.715Z,38.55
2019-02-02T10:50:31.153Z,58.23
2019-02-02T10:52:59.594Z,34.70
2019-02-02T10:55:28.577Z,37.98
2019-02-02T10:57:56.987Z,38.02
2019-02-02T11:00:28.176Z,34.85
2019-02-02T11:02:57.251Z,29.82
2019-02-02T11:05:25.877Z,40.65
2019-02-02T11:07:54.993Z,36.93
2019-02-02T11:10:28.711Z,34.30
2019-02-02T11:12:57.665Z,37.63
2019-02-02T11:15:26.580Z,34.00
2019-02-02T11:17:55.448Z,33.15
2019-02-02T11:20:35.593Z,35.52
2019-02-02T11:23:04.623Z,35.83
2019-02-02T11:25:33.353Z,38.88
2019-02-02T11:28:02.113Z,38.80
2019-02-02T11:30:31.181Z,36.65
2019-02-02T11:32:59.757Z,42.30
2019-02-02T11:35:28.188Z,41.90
2019-02-02T11:37:56.703Z,45.00
2019-02-02T11:40:30.453Z,38.05
2019-02-02T11:43:04.110Z,37.48
2019-02-02T11:45:33.062Z,42.27
2019-02-02T11:48:01.515Z,37.90
2019-02-02T11:50:30.019Z,37.15
2019-02-02T11:52:58.564Z,39.00
2019-02-02T11:55:28.943Z,38.75
2019-02-02T11:57:57.541Z,39.08
2019-02-02T12:00:31.454Z,35.85
2019-02-02T12:02:59.849Z,37.42
2019-02-02T12:05:28.837Z,37.55
2019-02-02T12:07:57.251Z,32.88
2019-02-02T12:10:28.038Z,42.80
2019-02-02T12:12:56.458Z,38.00
2019-02-02T12:15:25.018Z,35.70
2019-02-02T12:17:53.895Z,41.20
2019-02-02T12:20:24.142Z,37.23
2019-02-02T12:22:52.769Z,34.83
2019-02-02T12:25:21.183Z,32.75
2019-02-02T12:27:49.600Z,31.85
2019-02-02T12:30:27.067Z,33.10
2019-02-02T12:32:55.506Z,37.40
2019-02-02T12:35:43.279Z,37.78
2019-02-02T12:38:11.688Z,37.42
2019-02-02T12:40:40.172Z,33.67
2019-02-02T12:43:11.506Z,32.23
2019-02-02T12:45:41.797Z,32.00
2019-02-02T12:48:10.294Z,36.65
2019-02-02T12:50:38.719Z,40.98
2019-02-02T12:53:07.139Z,35.25
2019-02-02T12:55:35.890Z,34.23
2019-02-02T12:58:06.596Z,31.68
2019-02-02T13:00:35.015Z,26.45
2019-02-02T13:03:04.001Z,38.23
2019-02-02T13:05:33.103Z,34.58
2019-02-02T13:08:01.518Z,36.70
2019-02-02T13:10:30.604Z,35.45
2019-02-02T13:12:59.299Z,32.48
2019-02-02T13:15:27.752Z,33.92
2019-02-02T13:17:56.509Z,31.87
2019-02-02T13:20:24.947Z,28.67
2019-02-02T13:22:53.394Z,34.33
2019-02-02T13:25:23.489Z,29.55
2019-02-02T13:27:52.159Z,31.15
2019-02-02T13:30:26.348Z,33.18
2019-02-02T13:32:54.809Z,32.40
2019-02-02T13:35:24.455Z,27.32
2019-02-02T13:37:53.526Z,29.42
2019-02-02T13:40:23.696Z,31.60
2019-02-02T13:42:52.772Z,28.40
2019-02-02T13:45:22.629Z,31.17
2019-02-02T13:47:51.352Z,32.20
2019-02-02T13:50:20.109Z,26.82
2019-02-02T13:52:50.455Z,30.27
2019-02-02T13:55:19.227Z,32.58
2019-02-02T13:57:47.825Z,27.48
2019-02-02T14:00:22.555Z,28.38
2019-02-02T14:03:02.038Z,47.58
2019-02-02T14:05:21.633Z,26.35
2019-02-02T14:07:50.297Z,31.37
2019-02-02T14:10:23.883Z,29.23
2019-02-02T14:12:52.558Z,28.17
2019-02-02T14:15:24.503Z,27.60
2019-02-02T14:17:53.267Z,29.63
2019-02-02T14:20:21.959Z,30.02
2019-02-02T14:22:50.819Z,32.95
2019-02-02T14:25:19.330Z,28.42
2019-02-02T14:27:47.770Z,25.57
2019-02-02T14:30:25.511Z,33.10
2019-02-02T14:32:54.982Z,31.52
2019-02-02T14:35:26.432Z,32.70
2019-02-02T14:37:54.942Z,26.23
2019-02-02T14:40:23.515Z,30.97
2019-02-02T14:42:51.957Z,26.80
2019-02-02T14:45:23.218Z,30.23
2019-02-02T14:47:51.681Z,27.17
2019-02-02T14:50:21.764Z,25.40
2019-02-02T14:52:51.630Z,23.30
2019-02-02T14:55:25.322Z,26.60
2019-02-02T14:57:53.842Z,25.85
2019-02-02T15:00:24.705Z,31.17
2019-02-02T15:02:53.181Z,28.25
2019-02-02T15:05:22.187Z,27.60
2019-02-02T15:07:51.103Z,26.35
2019-02-02T15:10:21.000Z,26.50
2019-02-02T15:12:49.726Z,27.37
2019-02-02T15:15:18.206Z,25.97
2019-02-02T15:17:46.642Z,29.65
2019-02-02T15:20:23.636Z,28.30
2019-02-02T15:22:52.051Z,22.90
2019-02-02T15:25:20.563Z,25.88
2019-02-02T15:27:49.000Z,26.10
2019-02-02T15:30:23.122Z,26.93
2019-02-02T15:32:51.563Z,29.18
2019-02-02T15:35:19.982Z,29.92
2019-02-02T15:37:48.452Z,30.10
2019-02-02T15:40:18.596Z,30.97
2019-02-02T15:42:47.079Z,30.23
2019-02-02T15:45:27.208Z,29.32
2019-02-02T15:47:55.652Z,31.45
2019-02-02T15:50:24.079Z,31.00
2019-02-02T15:52:52.502Z,32.03
2019-02-02T15:55:25.056Z,32.90
2019-02-02T15:57:53.765Z,32.48
2019-02-02T16:00:30.789Z,32.03
2019-02-02T16:02:59.440Z,31.48
2019-02-02T16:05:29.122Z,30.45
2019-02-02T16:07:59.674Z,38.92
2019-02-02T16:10:30.661Z,39.98
2019-02-02T16:12:59.094Z,34.63
2019-02-02T16:15:27.505Z,37.65
2019-02-02T16:17:55.952Z,37.28
2019-02-02T16:20:35.797Z,36.75
2019-02-02T16:23:04.795Z,36.08
2019-02-02T16:25:33.233Z,36.58
2019-02-02T16:28:01.642Z,26.77
2019-02-02T16:30:31.242Z,35.95
2019-02-02T16:32:59.755Z,43.15
2019-02-02T16:35:28.417Z,42.85
2019-02-02T16:37:56.851Z,37.40
2019-02-02T16:40:27.634Z,37.83
2019-02-02T16:42:56.579Z,38.42
2019-02-02T16:45:29.984Z,40.52
2019-02-02T16:47:58.942Z,40.28
2019-02-02T16:50:27.696Z,38.88
2019-02-02T16:52:56.115Z,43.17
2019-02-02T16:55:24.571Z,38.53
2019-02-02T16:57:53.069Z,43.23
2019-02-02T17:00:26.474Z,42.30
2019-02-02T17:02:55.010Z,46.95
2019-02-02T17:05:23.434Z,49.53
2019-02-02T17:07:52.246Z,47.75
2019-02-02T17:10:28.533Z,45.40
2019-02-02T17:12:57.468Z,47.80
2019-02-02T17:15:25.906Z,45.67
2019-02-02T17:17:54.591Z,38.95
2019-02-02T17:20:39.903Z,43.48
2019-02-02T17:23:08.384Z,42.17
2019-02-02T17:25:36.838Z,60.30
2019-02-02T17:28:06.809Z,48.98
2019-02-02T17:30:35.328Z,36.77
2019-02-02T17:33:12.515Z,43.83
2019-02-02T17:35:40.946Z,39.10
2019-02-02T17:38:09.376Z,39.25
2019-02-02T17:40:37.807Z,58.20
2019-02-02T17:43:06.252Z,44.83
2019-02-02T17:45:34.726Z,40.25
2019-02-02T17:48:03.147Z,37.48
2019-02-02T17:50:31.591Z,43.35
2019-02-02T17:53:00.050Z,40.90
2019-02-02T17:55:28.487Z,39.53
2019-02-02T17:57:56.914Z,42.10
2019-02-02T18:00:42.402Z,42.35
2019-02-02T18:03:10.827Z,36.65
2019-02-02T18:05:39.577Z,39.03
2019-02-02T18:08:08.118Z,40.28
2019-02-02T18:10:36.691Z,36.28
2019-02-02T18:13:05.487Z,44.85
2019-02-02T18:15:33.897Z,43.92
2019-02-02T18:18:02.650Z,41.30
2019-02-02T18:20:31.126Z,34.80
2019-02-02T18:22:59.563Z,37.88
2019-02-02T18:25:28.108Z,42.20
2019-02-02T18:27:56.535Z,35.23
2019-02-02T18:30:26.817Z,42.70
2019-02-02T18:32:55.362Z,42.10
2019-02-02T18:35:23.848Z,37.25
2019-02-02T18:37:52.292Z,40.98
2019-02-02T18:40:24.573Z,37.95
2019-02-02T18:42:53.918Z,39.83
2019-02-02T18:45:27.503Z,41.13
2019-02-02T18:47:56.981Z,37.88
2019-02-02T18:50:25.566Z,38.28
2019-02-02T18:52:55.819Z,37.33
2019-02-02T18:55:39.181Z,33.05
2019-02-02T18:58:07.719Z,36.68
2019-02-02T19:00:36.154Z,37.53
2019-02-02T19:03:05.744Z,41.05
2019-02-02T19:05:34.158Z,47.10
2019-02-02T19:08:02.584Z,39.18
2019-02-02T19:10:34.116Z,46.77
2019-02-02T19:13:02.546Z,47.65
2019-02-02T19:15:31.347Z,46.85
2019-02-02T19:18:03.285Z,44.65
2019-02-02T19:20:30.883Z,43.05
2019-02-02T19:22:59.355Z,40.17
2019-02-02T19:25:27.789Z,40.40
2019-02-02T19:27:57.590Z,43.73
2019-02-02T19:30:31.919Z,39.90
2019-02-02T19:33:00.338Z,41.15
2019-02-02T19:35:35.654Z,38.28
2019-02-02T19:38:04.271Z,40.10
2019-02-02T19:40:32.684Z,38.40
2019-02-02T19:43:01.152Z,42.73
2019-02-02T19:45:30.122Z,42.43
2019-02-02T19:47:58.549Z,36.98
2019-02-02T19:50:28.724Z,44.27
2019-02-02T19:52:57.399Z,37.40
2019-02-02T19:55:25.863Z,42.08
2019-02-02T19:57:54.446Z,38.50
2019-02-02T20:00:25.642Z,36.68
2019-02-02T20:02:55.431Z,38.92
2019-02-02T20:05:28.733Z,41.63
2019-02-02T20:07:54.049Z,39.13
2019-02-02T20:10:22.495Z,37.20
2019-02-02T20:12:50.991Z,41.63
2019-02-02T20:15:24.535Z,39.88
2019-02-02T20:17:52.964Z,40.78
2019-02-02T20:20:24.947Z,46.80
2019-02-02T20:22:53.930Z,48.58
2019-02-02T20:25:22.418Z,51.45
2019-02-02T20:27:50.831Z,45.15
2019-02-02T20:30:30.951Z,38.73
2019-02-02T20:32:59.407Z,45.15
2019-02-02T20:35:39.828Z,39.23
2019-02-02T20:37:58.431Z,45.48
2019-02-02T20:40:27.923Z,41.88
2019-02-02T20:42:56.335Z,38.08
2019-02-02T20:45:36.411Z,44.38
2019-02-02T20:48:05.962Z,43.52
2019-02-02T20:50:34.421Z,38.70
2019-02-02T20:53:02.982Z,43.05
2019-02-02T20:55:35.115Z,41.25
2019-02-02T20:58:03.556Z,39.75
2019-02-02T21:00:32.357Z,42.27
2019-02-02T21:03:00.926Z,41.25
2019-02-02T21:05:31.807Z,49.45
2019-02-02T21:07:59.598Z,47.17
2019-02-02T21:10:28.042Z,49.18
2019-02-02T21:12:56.454Z,47.50
2019-02-02T21:15:24.887Z,44.20
2019-02-02T21:17:53.791Z,44.95
2019-02-02T21:20:27.551Z,51.28
2019-02-02T21:22:56.343Z,46.15
2019-02-02T21:25:25.344Z,48.45
2019-02-02T21:27:54.073Z,48.98
2019-02-02T21:30:31.340Z,43.08
2019-02-02T21:32:59.776Z,45.15
2019-02-02T21:35:28.274Z,40.28
2019-02-02T21:38:00.318Z,48.20
2019-02-02T21:40:31.387Z,50.67
2019-02-02T21:43:00.222Z,51.30
2019-02-02T21:45:28.670Z,46.35
2019-02-02T21:47:57.107Z,46.83
2019-02-02T21:50:26.187Z,44.65
2019-02-02T21:52:58.847Z,42.13
2019-02-02T21:55:30.095Z,41.02
2019-02-02T21:57:58.585Z,42.03
2019-02-02T22:00:35.847Z,44.23
2019-02-02T22:03:05.588Z,40.25
2019-02-02T22:05:34.047Z,47.43
2019-02-02T22:08:02.467Z,44.40
2019-02-02T22:10:30.942Z,45.58
2019-02-02T22:12:59.666Z,38.65
2019-02-02T22:15:29.550Z,40.43
2019-02-02T22:17:58.086Z,41.85
2019-02-02T22:20:26.503Z,42.80
2019-02-02T22:22:54.949Z,40.55
2019-02-02T22:25:29.180Z,42.67
2019-02-02T22:27:57.689Z,44.58
2019-02-02T22:30:31.761Z,39.65
2019-02-02T22:33:00.394Z,42.98
2019-02-02T22:35:29.016Z,40.25
2019-02-02T22:37:58.341Z,48.13
2019-02-02T22:40:28.287Z,47.25
2019-02-02T22:42:57.398Z,40.95
2019-02-02T22:45:25.806Z,40.35
2019-02-02T22:47:54.339Z,41.92
2019-02-02T22:50:24.698Z,42.80
2019-02-02T22:52:53.955Z,42.62
2019-02-02T22:55:23.796Z,45.38
2019-02-02T22:57:52.211Z,48.70
2019-02-02T23:00:43.595Z,44.38
2019-02-02T23:03:15.280Z,43.70
2019-02-02T23:05:49.700Z,44.35
2019-02-02T23:08:21.298Z,46.45
2019-02-02T23:10:58.762Z,40.20
2019-02-02T23:13:30.523Z,45.95
2019-02-02T23:16:07.928Z,51.73
2019-02-02T23:18:36.454Z,46.42
2019-02-02T23:21:06.528Z,52.80
2019-02-02T23:23:34.952Z,48.48
2019-02-02T23:26:06.560Z,44.98
2019-02-02T23:28:35.050Z,49.88
2019-02-02T23:31:03.574Z,46.85
2019-02-02T23:33:31.980Z,40.23
2019-02-02T23:36:00.435Z,42.98
2019-02-02T23:38:28.927Z,44.35
2019-02-02T23:41:02.259Z,35.48
2019-02-02T23:43:30.740Z,39.00
2019-02-02T23:45:59.249Z,48.70
2019-02-02T23:48:28.035Z,45.10
2019-02-02T23:50:57.823Z,50.55
2019-02-02T23:53:26.250Z,42.38
2019-02-02T23:55:57.642Z,37.33
2019-02-02T23:58:26.196Z,37.10
